KHVR/HVR METAR and TAF weather

Enter ICAO airport designator
Station Type Date Time Source
KHVR METAR 2019/06/20 06:53 UTC NOAA

KHVR 200653Z AUTO 32004KT 10SM SCT065 BKN085 10/05 A2979 RMK AO2 SLP077 T01000050 402610067


Station Type Date Time Source
KHVR Decoded METAR 2019/06/20 06:53 UTC NOAA

HAVRE CITY-COUNTY AIRPORT, MT, United States (KHVR) 48-33N 109-46W 787M
Jun 20, 2019 - 02:53 AM EDT / 2019.06.20 0653 UTC
Wind: from the NW (320 degrees) at 5 MPH (4 KT):0
Visibility: 10 mile(s):0
Sky conditions: mostly cloudy
Temperature: 50.0 F (10.0 C)
Dew Point: 41.0 F (5.0 C)
Relative Humidity: 71%
Pressure (altimeter): 29.79 in. Hg (1008 hPa)
ob: KHVR 200653Z AUTO 32004KT 10SM SCT065 BKN085 10/05 A2979 RMK AO2 SLP077 T01000050 402610067
cycle: 7

Station Type Date Time Source
KHVR TAF 2019/06/20 06:57 UTC NOAA

TAF KHVR 200554Z 2006/2106 VRB05KT P6SM BKN150
FM201400 VRB05KT P6SM FEW030 SCT100
TEMPO 2014/2016 4SM -RA BKN030
FM201600 26009KT P6SM SCT030 BKN090 PROB30 2016/2022 VRB30G40KT 4SM -TSRA BKN030CB
FM202200 29008KT P6SM FEW050 SCT090 PROB30 2022/2102 4SM -SHRA BKN050

Example: see airport list